sensor_id;sensor_type;location;lat;lon;timestamp;pressure;altitude;pressure_sealevel;temperature
71463;BMP180;59266;52.608;13.260;2022-12-29T00:01:02;100205.00;;;8.10
71463;BMP180;59266;52.608;13.260;2022-12-29T00:03:29;100193.00;;;8.20
71463;BMP180;59266;52.608;13.260;2022-12-29T00:05:56;100210.00;;;8.20
71463;BMP180;59266;52.608;13.260;2022-12-29T00:08:24;100189.00;;;8.20
71463;BMP180;59266;52.608;13.260;2022-12-29T00:11:11;100195.00;;;8.20
71463;BMP180;59266;52.608;13.260;2022-12-29T00:13:39;100196.00;;;8.30
71463;BMP180;59266;52.608;13.260;2022-12-29T00:16:24;100189.00;;;8.20
71463;BMP180;59266;52.608;13.260;2022-12-29T00:18:52;100182.00;;;8.30
71463;BMP180;59266;52.608;13.260;2022-12-29T00:21:20;100188.00;;;8.30
71463;BMP180;59266;52.608;13.260;2022-12-29T00:24:14;100184.00;;;8.40
71463;BMP180;59266;52.608;13.260;2022-12-29T00:26:43;100177.00;;;8.40
71463;BMP180;59266;52.608;13.260;2022-12-29T00:29:28;100168.00;;;8.40
71463;BMP180;59266;52.608;13.260;2022-12-29T00:32:15;100173.00;;;8.40
71463;BMP180;59266;52.608;13.260;2022-12-29T00:35:28;100173.00;;;8.40
71463;BMP180;59266;52.608;13.260;2022-12-29T00:37:57;100158.00;;;8.30
71463;BMP180;59266;52.608;13.260;2022-12-29T00:40:43;100161.00;;;8.40
71463;BMP180;59266;52.608;13.260;2022-12-29T00:43:29;100159.00;;;8.40
71463;BMP180;59266;52.608;13.260;2022-12-29T00:46:14;100165.00;;;8.40
71463;BMP180;59266;52.608;13.260;2022-12-29T00:48:45;100163.00;;;8.30
71463;BMP180;59266;52.608;13.260;2022-12-29T00:51:30;100159.00;;;8.40
71463;BMP180;59266;52.608;13.260;2022-12-29T00:53:57;100152.00;;;8.30
71463;BMP180;59266;52.608;13.260;2022-12-29T00:56:25;100152.00;;;8.20
71463;BMP180;59266;52.608;13.260;2022-12-29T00:58:53;100153.00;;;8.20
71463;BMP180;59266;52.608;13.260;2022-12-29T01:01:19;100147.00;;;8.20
71463;BMP180;59266;52.608;13.260;2022-12-29T01:03:46;100144.00;;;8.20
71463;BMP180;59266;52.608;13.260;2022-12-29T01:06:14;100151.00;;;8.30
71463;BMP180;59266;52.608;13.260;2022-12-29T01:08:40;100147.00;;;8.30
71463;BMP180;59266;52.608;13.260;2022-12-29T01:11:12;100153.00;;;8.30
71463;BMP180;59266;52.608;13.260;2022-12-29T01:13:39;100146.00;;;8.30
71463;BMP180;59266;52.608;13.260;2022-12-29T01:16:07;100146.00;;;8.30
71463;BMP180;59266;52.608;13.260;2022-12-29T01:18:34;100139.00;;;8.30
71463;BMP180;59266;52.608;13.260;2022-12-29T01:21:05;100147.00;;;8.30
71463;BMP180;59266;52.608;13.260;2022-12-29T01:23:33;100136.00;;;8.40
71463;BMP180;59266;52.608;13.260;2022-12-29T01:26:14;100146.00;;;8.40
71463;BMP180;59266;52.608;13.260;2022-12-29T01:28:40;100147.00;;;8.40
71463;BMP180;59266;52.608;13.260;2022-12-29T01:31:09;100150.00;;;8.40
71463;BMP180;59266;52.608;13.260;2022-12-29T01:33:37;100147.00;;;8.40
71463;BMP180;59266;52.608;13.260;2022-12-29T01:36:09;100147.00;;;8.40
71463;BMP180;59266;52.608;13.260;2022-12-29T01:38:37;100144.00;;;8.40
71463;BMP180;59266;52.608;13.260;2022-12-29T01:41:05;100136.00;;;8.40
71463;BMP180;59266;52.608;13.260;2022-12-29T01:43:46;100147.00;;;8.30
71463;BMP180;59266;52.608;13.260;2022-12-29T01:46:21;100147.00;;;8.30
71463;BMP180;59266;52.608;13.260;2022-12-29T01:49:09;100134.00;;;8.30
71463;BMP180;59266;52.608;13.260;2022-12-29T01:51:53;100147.00;;;8.30
71463;BMP180;59266;52.608;13.260;2022-12-29T01:54:29;100142.00;;;8.30
71463;BMP180;59266;52.608;13.260;2022-12-29T01:56:59;100130.00;;;8.20
71463;BMP180;59266;52.608;13.260;2022-12-29T01:59:30;100125.00;;;8.30
71463;BMP180;59266;52.608;13.260;2022-12-29T02:01:57;100122.00;;;8.30
71463;BMP180;59266;52.608;13.260;2022-12-29T02:04:24;100115.00;;;8.30
71463;BMP180;59266;52.608;13.260;2022-12-29T02:06:55;100113.00;;;8.30
71463;BMP180;59266;52.608;13.260;2022-12-29T02:09:23;100105.00;;;8.30
71463;BMP180;59266;52.608;13.260;2022-12-29T02:11:51;100108.00;;;8.30
71463;BMP180;59266;52.608;13.260;2022-12-29T02:14:18;100110.00;;;8.30
71463;BMP180;59266;52.608;13.260;2022-12-29T02:20:02;100095.00;;;8.30
71463;BMP180;59266;52.608;13.260;2022-12-29T02:25:46;100093.00;;;8.40
71463;BMP180;59266;52.608;13.260;2022-12-29T02:28:50;100084.00;;;8.40
71463;BMP180;59266;52.608;13.260;2022-12-29T02:31:39;100086.00;;;8.40
71463;BMP180;59266;52.608;13.260;2022-12-29T02:34:26;100083.00;;;8.40
71463;BMP180;59266;52.608;13.260;2022-12-29T02:39:56;100079.00;;;8.40
71463;BMP180;59266;52.608;13.260;2022-12-29T02:42:38;100085.00;;;8.50
71463;BMP180;59266;52.608;13.260;2022-12-29T02:45:13;100075.00;;;8.50
71463;BMP180;59266;52.608;13.260;2022-12-29T02:48:09;100070.00;;;8.60
71463;BMP180;59266;52.608;13.260;2022-12-29T02:50:39;100074.00;;;8.60
71463;BMP180;59266;52.608;13.260;2022-12-29T02:53:17;100075.00;;;8.60
71463;BMP180;59266;52.608;13.260;2022-12-29T02:56:06;100073.00;;;8.70
71463;BMP180;59266;52.608;13.260;2022-12-29T02:58:35;100069.00;;;8.70
71463;BMP180;59266;52.608;13.260;2022-12-29T03:01:16;100076.00;;;8.70
71463;BMP180;59266;52.608;13.260;2022-12-29T03:04:05;100069.00;;;8.80
71463;BMP180;59266;52.608;13.260;2022-12-29T03:07:23;100068.00;;;8.80
71463;BMP180;59266;52.608;13.260;2022-12-29T03:10:02;100057.00;;;8.80
71463;BMP180;59266;52.608;13.260;2022-12-29T03:18:52;100046.00;;;9.00
71463;BMP180;59266;52.608;13.260;2022-12-29T03:21:36;100052.00;;;9.00
71463;BMP180;59266;52.608;13.260;2022-12-29T03:24:25;100042.00;;;9.10
71463;BMP180;59266;52.608;13.260;2022-12-29T03:26:56;100037.00;;;9.10
71463;BMP180;59266;52.608;13.260;2022-12-29T03:29:27;100036.00;;;9.20
71463;BMP180;59266;52.608;13.260;2022-12-29T03:31:56;100039.00;;;9.20
71463;BMP180;59266;52.608;13.260;2022-12-29T03:34:25;100040.00;;;9.20
71463;BMP180;59266;52.608;13.260;2022-12-29T03:36:57;100035.00;;;9.30
71463;BMP180;59266;52.608;13.260;2022-12-29T03:39:26;100027.00;;;9.30
71463;BMP180;59266;52.608;13.260;2022-12-29T03:41:58;100033.00;;;9.30
71463;BMP180;59266;52.608;13.260;2022-12-29T03:44:37;100038.00;;;9.40
71463;BMP180;59266;52.608;13.260;2022-12-29T03:47:09;100023.00;;;9.40
71463;BMP180;59266;52.608;13.260;2022-12-29T03:49:37;100045.00;;;9.50
71463;BMP180;59266;52.608;13.260;2022-12-29T03:52:03;100048.00;;;9.50
71463;BMP180;59266;52.608;13.260;2022-12-29T03:54:30;100039.00;;;9.50
71463;BMP180;59266;52.608;13.260;2022-12-29T03:56:58;100039.00;;;9.50
71463;BMP180;59266;52.608;13.260;2022-12-29T03:59:25;100033.00;;;9.60
71463;BMP180;59266;52.608;13.260;2022-12-29T04:01:51;100020.00;;;9.60
71463;BMP180;59266;52.608;13.260;2022-12-29T04:04:18;100023.00;;;9.60
71463;BMP180;59266;52.608;13.260;2022-12-29T04:06:45;100026.00;;;9.70
71463;BMP180;59266;52.608;13.260;2022-12-29T04:09:12;100021.00;;;9.70
71463;BMP180;59266;52.608;13.260;2022-12-29T04:11:39;100032.00;;;9.70
71463;BMP180;59266;52.608;13.260;2022-12-29T04:14:05;100026.00;;;9.70
71463;BMP180;59266;52.608;13.260;2022-12-29T04:16:32;100028.00;;;9.80
71463;BMP180;59266;52.608;13.260;2022-12-29T04:19:02;100026.00;;;9.80
71463;BMP180;59266;52.608;13.260;2022-12-29T04:21:29;100020.00;;;9.80
71463;BMP180;59266;52.608;13.260;2022-12-29T04:23:55;100028.00;;;9.90
71463;BMP180;59266;52.608;13.260;2022-12-29T04:26:22;100037.00;;;9.90
71463;BMP180;59266;52.608;13.260;2022-12-29T04:28:49;100025.00;;;9.90
71463;BMP180;59266;52.608;13.260;2022-12-29T04:31:15;100034.00;;;9.90
71463;BMP180;59266;52.608;13.260;2022-12-29T04:33:43;100019.00;;;9.90
71463;BMP180;59266;52.608;13.260;2022-12-29T04:36:10;100013.00;;;9.90
71463;BMP180;59266;52.608;13.260;2022-12-29T04:38:37;100002.00;;;9.90
71463;BMP180;59266;52.608;13.260;2022-12-29T04:41:04;100007.00;;;9.80
71463;BMP180;59266;52.608;13.260;2022-12-29T04:43:31;100011.00;;;9.80
71463;BMP180;59266;52.608;13.260;2022-12-29T04:45:58;99999.00;;;9.80
71463;BMP180;59266;52.608;13.260;2022-12-29T04:48:24;100016.00;;;9.80
71463;BMP180;59266;52.608;13.260;2022-12-29T04:50:51;100016.00;;;9.80
71463;BMP180;59266;52.608;13.260;2022-12-29T04:53:18;100012.00;;;9.80
71463;BMP180;59266;52.608;13.260;2022-12-29T04:55:49;100005.00;;;9.80
71463;BMP180;59266;52.608;13.260;2022-12-29T04:58:15;99996.00;;;9.80
71463;BMP180;59266;52.608;13.260;2022-12-29T05:00:48;99998.00;;;9.90
71463;BMP180;59266;52.608;13.260;2022-12-29T05:03:14;100008.00;;;9.80
71463;BMP180;59266;52.608;13.260;2022-12-29T05:05:41;99997.00;;;9.90
71463;BMP180;59266;52.608;13.260;2022-12-29T05:08:08;99993.00;;;9.90
71463;BMP180;59266;52.608;13.260;2022-12-29T05:10:35;99993.00;;;9.90
71463;BMP180;59266;52.608;13.260;2022-12-29T05:13:01;99996.00;;;9.90
71463;BMP180;59266;52.608;13.260;2022-12-29T05:15:28;99998.00;;;10.00
71463;BMP180;59266;52.608;13.260;2022-12-29T05:17:55;99979.00;;;10.00
71463;BMP180;59266;52.608;13.260;2022-12-29T05:20:21;99984.00;;;10.10
71463;BMP180;59266;52.608;13.260;2022-12-29T05:22:48;99988.00;;;10.10
71463;BMP180;59266;52.608;13.260;2022-12-29T05:25:15;99977.00;;;10.10
71463;BMP180;59266;52.608;13.260;2022-12-29T05:27:41;99984.00;;;10.10
71463;BMP180;59266;52.608;13.260;2022-12-29T05:30:08;99965.00;;;10.10
71463;BMP180;59266;52.608;13.260;2022-12-29T05:32:35;99967.00;;;10.20
71463;BMP180;59266;52.608;13.260;2022-12-29T05:35:05;99961.00;;;10.20
71463;BMP180;59266;52.608;13.260;2022-12-29T05:37:32;99960.00;;;10.30
71463;BMP180;59266;52.608;13.260;2022-12-29T05:39:59;99980.00;;;10.30
71463;BMP180;59266;52.608;13.260;2022-12-29T05:42:26;99960.00;;;10.30
71463;BMP180;59266;52.608;13.260;2022-12-29T05:44:53;99967.00;;;10.40
71463;BMP180;59266;52.608;13.260;2022-12-29T05:47:20;99960.00;;;10.40
71463;BMP180;59266;52.608;13.260;2022-12-29T05:49:47;99965.00;;;10.40
71463;BMP180;59266;52.608;13.260;2022-12-29T05:52:14;99973.00;;;10.40
71463;BMP180;59266;52.608;13.260;2022-12-29T05:54:40;99976.00;;;10.40
71463;BMP180;59266;52.608;13.260;2022-12-29T05:57:07;99968.00;;;10.50
71463;BMP180;59266;52.608;13.260;2022-12-29T05:59:33;99964.00;;;10.50
71463;BMP180;59266;52.608;13.260;2022-12-29T06:02:00;99961.00;;;10.40
71463;BMP180;59266;52.608;13.260;2022-12-29T06:04:27;99960.00;;;10.50
71463;BMP180;59266;52.608;13.260;2022-12-29T06:06:54;99935.00;;;10.50
71463;BMP180;59266;52.608;13.260;2022-12-29T06:09:21;99946.00;;;10.50
71463;BMP180;59266;52.608;13.260;2022-12-29T06:11:48;99947.00;;;10.50
71463;BMP180;59266;52.608;13.260;2022-12-29T06:14:14;99954.00;;;10.50
71463;BMP180;59266;52.608;13.260;2022-12-29T06:16:41;99960.00;;;10.60
71463;BMP180;59266;52.608;13.260;2022-12-29T06:19:08;99958.00;;;10.60
71463;BMP180;59266;52.608;13.260;2022-12-29T06:21:35;99969.00;;;10.60
71463;BMP180;59266;52.608;13.260;2022-12-29T06:24:03;99962.00;;;10.60
71463;BMP180;59266;52.608;13.260;2022-12-29T06:26:29;99972.00;;;10.70
71463;BMP180;59266;52.608;13.260;2022-12-29T06:28:56;99953.00;;;10.70
71463;BMP180;59266;52.608;13.260;2022-12-29T06:31:23;99959.00;;;10.70
71463;BMP180;59266;52.608;13.260;2022-12-29T06:33:50;99959.00;;;10.80
71463;BMP180;59266;52.608;13.260;2022-12-29T06:36:18;99956.00;;;10.80
71463;BMP180;59266;52.608;13.260;2022-12-29T06:38:44;99966.00;;;10.80
71463;BMP180;59266;52.608;13.260;2022-12-29T06:41:11;99968.00;;;10.80
71463;BMP180;59266;52.608;13.260;2022-12-29T06:43:38;99960.00;;;10.80
71463;BMP180;59266;52.608;13.260;2022-12-29T06:46:05;99950.00;;;10.80
71463;BMP180;59266;52.608;13.260;2022-12-29T06:48:32;99953.00;;;10.80
71463;BMP180;59266;52.608;13.260;2022-12-29T06:50:59;99964.00;;;10.80
71463;BMP180;59266;52.608;13.260;2022-12-29T06:53:26;99964.00;;;10.70
71463;BMP180;59266;52.608;13.260;2022-12-29T06:55:52;99960.00;;;10.70
71463;BMP180;59266;52.608;13.260;2022-12-29T06:58:19;99970.00;;;10.70
71463;BMP180;59266;52.608;13.260;2022-12-29T07:00:46;99967.00;;;10.70
71463;BMP180;59266;52.608;13.260;2022-12-29T07:03:12;99974.00;;;10.70
71463;BMP180;59266;52.608;13.260;2022-12-29T07:05:39;99966.00;;;10.70
71463;BMP180;59266;52.608;13.260;2022-12-29T07:08:06;99968.00;;;10.60
71463;BMP180;59266;52.608;13.260;2022-12-29T07:10:32;99970.00;;;10.60
71463;BMP180;59266;52.608;13.260;2022-12-29T07:12:59;99987.00;;;10.60
71463;BMP180;59266;52.608;13.260;2022-12-29T07:15:26;99986.00;;;10.70
71463;BMP180;59266;52.608;13.260;2022-12-29T07:17:52;99979.00;;;10.70
71463;BMP180;59266;52.608;13.260;2022-12-29T07:20:19;99987.00;;;10.70
71463;BMP180;59266;52.608;13.260;2022-12-29T07:22:52;99986.00;;;10.80
71463;BMP180;59266;52.608;13.260;2022-12-29T07:25:18;99976.00;;;10.80
71463;BMP180;59266;52.608;13.260;2022-12-29T07:27:45;99979.00;;;10.70
71463;BMP180;59266;52.608;13.260;2022-12-29T07:30:12;99983.00;;;10.70
71463;BMP180;59266;52.608;13.260;2022-12-29T07:32:39;99972.00;;;10.70
71463;BMP180;59266;52.608;13.260;2022-12-29T07:35:06;99970.00;;;10.70
71463;BMP180;59266;52.608;13.260;2022-12-29T07:37:33;99963.00;;;10.70
71463;BMP180;59266;52.608;13.260;2022-12-29T07:40:01;99948.00;;;10.70
71463;BMP180;59266;52.608;13.260;2022-12-29T07:42:30;99970.00;;;10.70
71463;BMP180;59266;52.608;13.260;2022-12-29T07:44:57;99965.00;;;10.70
71463;BMP180;59266;52.608;13.260;2022-12-29T07:47:24;99962.00;;;10.70
71463;BMP180;59266;52.608;13.260;2022-12-29T07:49:50;99968.00;;;10.80
71463;BMP180;59266;52.608;13.260;2022-12-29T07:52:17;99956.00;;;10.80
71463;BMP180;59266;52.608;13.260;2022-12-29T07:54:44;99973.00;;;10.80
71463;BMP180;59266;52.608;13.260;2022-12-29T07:57:11;99968.00;;;10.70
71463;BMP180;59266;52.608;13.260;2022-12-29T07:59:38;99966.00;;;10.80
71463;BMP180;59266;52.608;13.260;2022-12-29T08:02:05;99978.00;;;10.80
71463;BMP180;59266;52.608;13.260;2022-12-29T08:04:32;99971.00;;;10.80
71463;BMP180;59266;52.608;13.260;2022-12-29T08:06:59;99971.00;;;10.70
71463;BMP180;59266;52.608;13.260;2022-12-29T08:09:26;99968.00;;;10.80
71463;BMP180;59266;52.608;13.260;2022-12-29T08:11:53;99980.00;;;10.80
71463;BMP180;59266;52.608;13.260;2022-12-29T08:14:20;99972.00;;;10.80
71463;BMP180;59266;52.608;13.260;2022-12-29T08:16:47;99978.00;;;10.80
71463;BMP180;59266;52.608;13.260;2022-12-29T08:19:13;99961.00;;;10.80
71463;BMP180;59266;52.608;13.260;2022-12-29T08:21:41;99987.00;;;10.80
71463;BMP180;59266;52.608;13.260;2022-12-29T08:24:08;99973.00;;;10.80
71463;BMP180;59266;52.608;13.260;2022-12-29T08:26:35;99978.00;;;10.80
71463;BMP180;59266;52.608;13.260;2022-12-29T08:29:01;99980.00;;;10.80
71463;BMP180;59266;52.608;13.260;2022-12-29T08:31:28;99973.00;;;10.60
71463;BMP180;59266;52.608;13.260;2022-12-29T08:33:55;99971.00;;;10.70
71463;BMP180;59266;52.608;13.260;2022-12-29T08:36:22;99952.00;;;10.70
71463;BMP180;59266;52.608;13.260;2022-12-29T08:38:49;99961.00;;;10.60
71463;BMP180;59266;52.608;13.260;2022-12-29T08:41:15;99953.00;;;10.70
71463;BMP180;59266;52.608;13.260;2022-12-29T08:43:46;99959.00;;;10.70
71463;BMP180;59266;52.608;13.260;2022-12-29T08:46:13;99947.00;;;10.70
71463;BMP180;59266;52.608;13.260;2022-12-29T08:48:40;99968.00;;;10.80
71463;BMP180;59266;52.608;13.260;2022-12-29T08:51:07;99959.00;;;10.90
71463;BMP180;59266;52.608;13.260;2022-12-29T08:53:34;99964.00;;;11.00
71463;BMP180;59266;52.608;13.260;2022-12-29T08:56:01;99962.00;;;11.20
71463;BMP180;59266;52.608;13.260;2022-12-29T08:58:31;99954.00;;;11.30
71463;BMP180;59266;52.608;13.260;2022-12-29T09:00:59;99948.00;;;11.30
71463;BMP180;59266;52.608;13.260;2022-12-29T09:03:26;99951.00;;;11.40
71463;BMP180;59266;52.608;13.260;2022-12-29T09:06:15;99964.00;;;11.50
71463;BMP180;59266;52.608;13.260;2022-12-29T09:08:44;99954.00;;;11.50
71463;BMP180;59266;52.608;13.260;2022-12-29T09:11:14;99942.00;;;11.40
71463;BMP180;59266;52.608;13.260;2022-12-29T09:13:42;99947.00;;;11.40
71463;BMP180;59266;52.608;13.260;2022-12-29T09:16:08;99954.00;;;11.40
71463;BMP180;59266;52.608;13.260;2022-12-29T09:18:35;99952.00;;;11.50
71463;BMP180;59266;52.608;13.260;2022-12-29T09:21:04;99958.00;;;11.40
71463;BMP180;59266;52.608;13.260;2022-12-29T09:23:33;99941.00;;;11.40
71463;BMP180;59266;52.608;13.260;2022-12-29T09:26:03;99938.00;;;11.60
71463;BMP180;59266;52.608;13.260;2022-12-29T09:28:30;99949.00;;;11.60
71463;BMP180;59266;52.608;13.260;2022-12-29T09:30:57;99939.00;;;11.70
71463;BMP180;59266;52.608;13.260;2022-12-29T09:33:24;99940.00;;;11.80
71463;BMP180;59266;52.608;13.260;2022-12-29T09:35:54;99935.00;;;11.90
71463;BMP180;59266;52.608;13.260;2022-12-29T09:38:21;99919.00;;;11.90
71463;BMP180;59266;52.608;13.260;2022-12-29T09:40:54;99928.00;;;12.10
71463;BMP180;59266;52.608;13.260;2022-12-29T09:43:28;99919.00;;;12.10
71463;BMP180;59266;52.608;13.260;2022-12-29T09:46:28;99922.00;;;12.20
71463;BMP180;59266;52.608;13.260;2022-12-29T09:51:31;99917.00;;;12.30
71463;BMP180;59266;52.608;13.260;2022-12-29T09:54:10;99938.00;;;12.60
71463;BMP180;59266;52.608;13.260;2022-12-29T09:56:39;99931.00;;;12.70
71463;BMP180;59266;52.608;13.260;2022-12-29T09:59:16;99930.00;;;12.80
71463;BMP180;59266;52.608;13.260;2022-12-29T10:01:51;99949.00;;;12.80
71463;BMP180;59266;52.608;13.260;2022-12-29T10:04:21;99938.00;;;12.80
71463;BMP180;59266;52.608;13.260;2022-12-29T10:06:55;99937.00;;;12.70
71463;BMP180;59266;52.608;13.260;2022-12-29T10:13:00;99942.00;;;12.60
71463;BMP180;59266;52.608;13.260;2022-12-29T10:15:38;99955.00;;;12.60
71463;BMP180;59266;52.608;13.260;2022-12-29T10:18:18;99943.00;;;12.60
71463;BMP180;59266;52.608;13.260;2022-12-29T10:21:07;99925.00;;;12.70
71463;BMP180;59266;52.608;13.260;2022-12-29T10:23:52;99927.00;;;12.90
71463;BMP180;59266;52.608;13.260;2022-12-29T10:26:26;99920.00;;;12.90
71463;BMP180;59266;52.608;13.260;2022-12-29T10:29:02;99938.00;;;13.00
71463;BMP180;59266;52.608;13.260;2022-12-29T10:31:40;99935.00;;;13.20
71463;BMP180;59266;52.608;13.260;2022-12-29T10:34:19;99926.00;;;13.20
71463;BMP180;59266;52.608;13.260;2022-12-29T10:36:49;99920.00;;;13.20
71463;BMP180;59266;52.608;13.260;2022-12-29T10:39:28;99936.00;;;13.20
71463;BMP180;59266;52.608;13.260;2022-12-29T10:42:15;99925.00;;;13.40
71463;BMP180;59266;52.608;13.260;2022-12-29T10:44:42;99944.00;;;13.40
71463;BMP180;59266;52.608;13.260;2022-12-29T10:47:15;99922.00;;;13.40
71463;BMP180;59266;52.608;13.260;2022-12-29T10:49:45;99935.00;;;13.60
71463;BMP180;59266;52.608;13.260;2022-12-29T10:52:16;99933.00;;;13.50
71463;BMP180;59266;52.608;13.260;2022-12-29T10:54:56;99920.00;;;13.50
71463;BMP180;59266;52.608;13.260;2022-12-29T10:57:33;99920.00;;;13.50
71463;BMP180;59266;52.608;13.260;2022-12-29T11:00:01;99916.00;;;13.50
71463;BMP180;59266;52.608;13.260;2022-12-29T11:05:35;99920.00;;;13.40
71463;BMP180;59266;52.608;13.260;2022-12-29T11:08:19;99911.00;;;13.40
71463;BMP180;59266;52.608;13.260;2022-12-29T11:11:03;99923.00;;;13.40
71463;BMP180;59266;52.608;13.260;2022-12-29T11:13:32;99898.00;;;13.40
71463;BMP180;59266;52.608;13.260;2022-12-29T11:16:04;99919.00;;;13.40
71463;BMP180;59266;52.608;13.260;2022-12-29T11:18:33;99921.00;;;13.40
71463;BMP180;59266;52.608;13.260;2022-12-29T11:21:05;99925.00;;;13.40
71463;BMP180;59266;52.608;13.260;2022-12-29T11:23:38;99914.00;;;13.50
71463;BMP180;59266;52.608;13.260;2022-12-29T11:26:22;99935.00;;;13.40
71463;BMP180;59266;52.608;13.260;2022-12-29T11:29:17;99926.00;;;13.40
71463;BMP180;59266;52.608;13.260;2022-12-29T11:31:55;99930.00;;;13.40
71463;BMP180;59266;52.608;13.260;2022-12-29T11:34:33;99928.00;;;13.40
71463;BMP180;59266;52.608;13.260;2022-12-29T11:37:11;99942.00;;;13.30
71463;BMP180;59266;52.608;13.260;2022-12-29T11:39:55;99930.00;;;12.90
71463;BMP180;59266;52.608;13.260;2022-12-29T11:45:16;99933.00;;;12.60
71463;BMP180;59266;52.608;13.260;2022-12-29T11:47:47;99925.00;;;12.60
71463;BMP180;59266;52.608;13.260;2022-12-29T11:50:22;99918.00;;;12.50
71463;BMP180;59266;52.608;13.260;2022-12-29T11:52:58;99931.00;;;12.40
71463;BMP180;59266;52.608;13.260;2022-12-29T11:55:28;99926.00;;;12.30
71463;BMP180;59266;52.608;13.260;2022-12-29T11:57:59;99926.00;;;12.10
71463;BMP180;59266;52.608;13.260;2022-12-29T12:00:28;99936.00;;;12.00
71463;BMP180;59266;52.608;13.260;2022-12-29T12:03:02;99945.00;;;11.90
71463;BMP180;59266;52.608;13.260;2022-12-29T12:05:36;99960.00;;;11.90
71463;BMP180;59266;52.608;13.260;2022-12-29T12:08:27;99949.00;;;12.00
71463;BMP180;59266;52.608;13.260;2022-12-29T12:11:02;99952.00;;;11.90
71463;BMP180;59266;52.608;13.260;2022-12-29T12:13:38;99963.00;;;11.90
71463;BMP180;59266;52.608;13.260;2022-12-29T12:16:15;99969.00;;;11.80
71463;BMP180;59266;52.608;13.260;2022-12-29T12:19:01;99961.00;;;11.80
71463;BMP180;59266;52.608;13.260;2022-12-29T12:21:39;99962.00;;;11.60
71463;BMP180;59266;52.608;13.260;2022-12-29T12:24:42;99956.00;;;11.30
71463;BMP180;59266;52.608;13.260;2022-12-29T12:27:26;99944.00;;;11.30
71463;BMP180;59266;52.608;13.260;2022-12-29T12:35:12;99915.00;;;11.20
71463;BMP180;59266;52.608;13.260;2022-12-29T12:40:58;99936.00;;;11.40
71463;BMP180;59266;52.608;13.260;2022-12-29T12:43:36;99938.00;;;11.60
71463;BMP180;59266;52.608;13.260;2022-12-29T12:52:12;99947.00;;;11.90
71463;BMP180;59266;52.608;13.260;2022-12-29T12:55:02;99942.00;;;11.90
71463;BMP180;59266;52.608;13.260;2022-12-29T12:57:59;99950.00;;;12.10
71463;BMP180;59266;52.608;13.260;2022-12-29T13:00:50;99956.00;;;11.90
71463;BMP180;59266;52.608;13.260;2022-12-29T13:06:26;99947.00;;;11.80
71463;BMP180;59266;52.608;13.260;2022-12-29T13:09:14;99956.00;;;11.80
71463;BMP180;59266;52.608;13.260;2022-12-29T13:12:00;99956.00;;;11.80
71463;BMP180;59266;52.608;13.260;2022-12-29T13:14:51;99954.00;;;11.80
71463;BMP180;59266;52.608;13.260;2022-12-29T13:23:02;99953.00;;;11.60
71463;BMP180;59266;52.608;13.260;2022-12-29T13:25:48;99966.00;;;11.50
71463;BMP180;59266;52.608;13.260;2022-12-29T13:28:27;99969.00;;;11.70
71463;BMP180;59266;52.608;13.260;2022-12-29T13:31:11;99967.00;;;11.70
71463;BMP180;59266;52.608;13.260;2022-12-29T13:34:23;99970.00;;;11.80
71463;BMP180;59266;52.608;13.260;2022-12-29T13:37:02;99970.00;;;11.70
71463;BMP180;59266;52.608;13.260;2022-12-29T13:39:39;99965.00;;;11.70
71463;BMP180;59266;52.608;13.260;2022-12-29T13:42:10;99966.00;;;11.70
71463;BMP180;59266;52.608;13.260;2022-12-29T13:44:43;99969.00;;;11.70
71463;BMP180;59266;52.608;13.260;2022-12-29T13:47:31;99971.00;;;11.60
71463;BMP180;59266;52.608;13.260;2022-12-29T13:50:01;99977.00;;;11.60
71463;BMP180;59266;52.608;13.260;2022-12-29T13:52:34;99992.00;;;11.50
71463;BMP180;59266;52.608;13.260;2022-12-29T13:55:25;100002.00;;;11.40
71463;BMP180;59266;52.608;13.260;2022-12-29T13:58:12;100000.00;;;11.50
71463;BMP180;59266;52.608;13.260;2022-12-29T14:00:50;100000.00;;;11.40
71463;BMP180;59266;52.608;13.260;2022-12-29T14:03:52;100003.00;;;11.30
71463;BMP180;59266;52.608;13.260;2022-12-29T14:15:06;100018.00;;;11.20
71463;BMP180;59266;52.608;13.260;2022-12-29T14:17:40;100016.00;;;11.20
71463;BMP180;59266;52.608;13.260;2022-12-29T14:20:20;100025.00;;;11.20
71463;BMP180;59266;52.608;13.260;2022-12-29T14:23:02;100022.00;;;11.20
71463;BMP180;59266;52.608;13.260;2022-12-29T14:36:52;100030.00;;;11.10
71463;BMP180;59266;52.608;13.260;2022-12-29T14:39:41;100043.00;;;11.10
71463;BMP180;59266;52.608;13.260;2022-12-29T14:42:14;100045.00;;;11.10
71463;BMP180;59266;52.608;13.260;2022-12-29T14:45:33;100045.00;;;11.20
71463;BMP180;59266;52.608;13.260;2022-12-29T14:47:59;100040.00;;;11.30
71463;BMP180;59266;52.608;13.260;2022-12-29T14:50:42;100037.00;;;11.20
71463;BMP180;59266;52.608;13.260;2022-12-29T14:53:50;100056.00;;;11.20
71463;BMP180;59266;52.608;13.260;2022-12-29T14:56:17;100066.00;;;11.20
71463;BMP180;59266;52.608;13.260;2022-12-29T14:59:01;100097.00;;;11.20
71463;BMP180;59266;52.608;13.260;2022-12-29T15:04:18;100113.00;;;10.70
71463;BMP180;59266;52.608;13.260;2022-12-29T15:06:49;100134.00;;;10.40
71463;BMP180;59266;52.608;13.260;2022-12-29T15:09:30;100141.00;;;10.10
71463;BMP180;59266;52.608;13.260;2022-12-29T15:12:06;100104.00;;;9.90
71463;BMP180;59266;52.608;13.260;2022-12-29T15:14:53;100077.00;;;9.80
71463;BMP180;59266;52.608;13.260;2022-12-29T15:19:50;100080.00;;;9.80
71463;BMP180;59266;52.608;13.260;2022-12-29T15:22:17;100080.00;;;9.70
71463;BMP180;59266;52.608;13.260;2022-12-29T15:24:44;100087.00;;;9.70
71463;BMP180;59266;52.608;13.260;2022-12-29T15:27:17;100097.00;;;9.70
71463;BMP180;59266;52.608;13.260;2022-12-29T15:29:46;100095.00;;;9.80
71463;BMP180;59266;52.608;13.260;2022-12-29T15:32:20;100089.00;;;9.70
71463;BMP180;59266;52.608;13.260;2022-12-29T15:34:50;100086.00;;;9.70
71463;BMP180;59266;52.608;13.260;2022-12-29T15:37:28;100097.00;;;9.50
71463;BMP180;59266;52.608;13.260;2022-12-29T15:39:59;100099.00;;;9.60
71463;BMP180;59266;52.608;13.260;2022-12-29T15:42:36;100099.00;;;9.50
71463;BMP180;59266;52.608;13.260;2022-12-29T15:45:10;100106.00;;;9.40